Time;durP1;ratioP1;P1;durP2;ratioP2;P2;SDS_P1;SDS_P2;PMS_P1;PMS_P2;Temp;Humidity;BMP_temperature;BMP_pressure;BME280_temperature;BME280_humidity;BME280_pressure;Samples;Min_cycle;Max_cycle;Signal;HPM_P1;HPM_P2
2022/02/03 00:00:19;;;;;;;18.33;3.40;;;2.30;99.90;;;;;;2081767;28;20033;-72
2022/02/03 00:01:27;;;;;;;21.52;3.72;;;2.20;99.90;;;;;;2090482;28;20037;-70
2022/02/03 00:02:45;;;;;;;16.55;3.35;;;2.20;99.90;;;;;;2097856;28;20036;-72
2022/02/03 00:03:52;;;;;;;18.30;3.20;;;2.20;99.90;;;;;;2096768;28;20028;-73
2022/02/03 00:05:10;;;;;;;20.63;3.47;;;2.30;99.90;;;;;;2089450;28;20048;-74
2022/02/03 00:06:14;;;;;;;16.23;3.15;;;2.20;99.90;;;;;;2090796;28;20037;-75
2022/02/03 00:07:20;;;;;;;15.68;3.40;;;2.20;99.90;;;;;;2097326;28;20555;-74
2022/02/03 00:11:01;;;;;;;14.63;3.20;;;2.20;99.90;;;;;;2099900;28;20047;-73
2022/02/03 00:25:12;;;;;;;15.70;3.58;;;2.20;99.90;;;;;;2097553;28;20036;-73
2022/02/03 00:26:16;;;;;;;15.57;3.40;;;2.10;99.90;;;;;;2096330;28;20151;-74
2022/02/03 00:27:37;;;;;;;21.65;3.53;;;2.20;99.90;;;;;;2096901;28;20033;-74
2022/02/03 00:28:45;;;;;;;18.17;3.50;;;2.10;99.90;;;;;;2096925;28;20020;-72
2022/02/03 00:29:58;;;;;;;15.32;3.20;;;2.10;99.90;;;;;;2096977;28;20112;-72
2022/02/03 00:31:07;;;;;;;15.93;3.20;;;2.10;99.90;;;;;;2097051;28;20017;-74
2022/02/03 00:32:27;;;;;;;12.77;3.05;;;2.10;99.90;;;;;;2096481;28;20083;-74
2022/02/03 00:34:43;;;;;;;23.02;3.60;;;2.10;99.90;;;;;;2096776;28;20126;-74
2022/02/03 00:38:17;;;;;;;18.08;3.45;;;2.00;99.90;;;;;;2097470;28;20021;-74
2022/02/03 00:48:33;;;;;;;11.20;2.70;;;1.70;99.90;;;;;;2098984;28;20032;-73
2022/02/03 00:49:51;;;;;;;12.13;2.83;;;1.70;99.90;;;;;;2090785;28;20155;-72
2022/02/03 00:50:53;;;;;;;9.65;2.83;;;1.70;99.90;;;;;;2099394;28;20111;-74
2022/02/03 00:52:01;;;;;;;11.13;2.47;;;1.70;99.90;;;;;;2101149;28;20039;-72
2022/02/03 00:53:06;;;;;;;8.30;2.40;;;1.70;99.90;;;;;;2105506;28;20036;-73
2022/02/03 00:54:09;;;;;;;10.48;2.55;;;1.70;99.90;;;;;;2105719;28;20115;-74
2022/02/03 00:55:10;;;;;;;10.18;3.08;;;1.60;99.90;;;;;;2096429;28;20467;-73
2022/02/03 00:56:16;;;;;;;16.42;3.05;;;1.60;99.90;;;;;;2096167;28;20082;-74
2022/02/03 00:57:45;;;;;;;9.82;2.88;;;1.60;99.90;;;;;;2105310;28;20039;-75
2022/02/03 00:59:01;;;;;;;13.45;2.92;;;1.70;99.90;;;;;;2094400;28;20116;-74
2022/02/03 01:00:08;;;;;;;17.17;3.30;;;1.60;99.90;;;;;;2104942;28;20585;-73
2022/02/03 01:01:14;;;;;;;18.55;3.08;;;1.60;99.90;;;;;;2097588;28;20377;-72
2022/02/03 01:02:16;;;;;;;15.63;3.13;;;1.60;99.90;;;;;;2105105;28;20123;-72
2022/02/03 01:03:18;;;;;;;10.25;2.97;;;1.60;99.90;;;;;;2104889;28;20031;-71
2022/02/03 01:04:19;;;;;;;11.88;3.17;;;1.60;99.90;;;;;;2105183;28;20039;-74
2022/02/03 01:05:19;;;;;;;8.68;2.80;;;1.50;99.90;;;;;;2097026;28;20024;-73
2022/02/03 01:06:25;;;;;;;11.20;2.67;;;1.50;99.90;;;;;;2096439;28;20483;-73
2022/02/03 01:07:32;;;;;;;13.30;3.17;;;1.50;99.90;;;;;;2105817;28;20028;-73
2022/02/03 01:08:40;;;;;;;10.25;2.97;;;1.50;99.90;;;;;;2105780;28;20024;-74
2022/02/03 01:09:56;;;;;;;14.40;3.35;;;1.50;99.90;;;;;;2105043;28;20020;-72
2022/02/03 01:11:07;;;;;;;12.15;3.22;;;1.50;99.90;;;;;;2105169;28;20083;-72
2022/02/03 01:12:20;;;;;;;14.57;3.80;;;1.50;99.90;;;;;;2105418;28;20036;-73
2022/02/03 01:13:42;;;;;;;14.95;3.20;;;1.50;99.90;;;;;;2105609;28;20103;-73
2022/02/03 01:14:58;;;;;;;20.30;4.20;;;1.50;99.90;;;;;;2106347;28;20394;-72
2022/02/03 01:16:17;;;;;;;14.15;3.58;;;1.50;99.90;;;;;;2101999;28;20151;-72
2022/02/03 01:17:47;;;;;;;10.48;3.30;;;1.50;99.90;;;;;;2107057;28;20760;-74
2022/02/03 01:33:27;;;;;;;13.32;3.40;;;1.50;99.90;;;;;;2106166;28;20082;-73
2022/02/03 01:34:06;;;;;;;12.52;4.03;;;1.50;99.90;;;;;;2106860;28;20067;-73
2022/02/03 01:37:52;;;;;;;12.75;4.80;;;1.40;99.90;;;;;;2106123;28;20025;-73
2022/02/03 01:46:14;;;;;;;16.17;4.88;;;1.30;99.90;;;;;;2067269;28;20038;-72
2022/02/03 01:47:56;;;;;;;15.02;4.80;;;1.20;99.90;;;;;;2086041;28;20034;-74
2022/02/03 01:52:32;;;;;;;19.65;4.22;;;1.20;99.90;;;;;;2104699;28;20391;-75
2022/02/03 01:53:33;;;;;;;13.10;3.70;;;1.20;99.90;;;;;;2105356;28;20520;-73
2022/02/03 01:54:36;;;;;;;10.80;3.40;;;1.20;99.90;;;;;;2105376;28;20081;-74
2022/02/03 01:55:40;;;;;;;9.10;3.50;;;1.20;99.90;;;;;;2104393;28;20020;-74
2022/02/03 01:56:49;;;;;;;11.40;3.60;;;1.20;99.90;;;;;;2104864;28;20095;-74
2022/02/03 01:58:12;;;;;;;11.65;3.53;;;1.20;99.90;;;;;;2104829;28;20380;-73
2022/02/03 01:59:21;;;;;;;12.18;3.42;;;1.20;99.90;;;;;;2091093;28;20040;-73
2022/02/03 02:00:23;;;;;;;11.90;3.60;;;1.20;99.90;;;;;;2089409;28;20045;-74
2022/02/03 02:01:25;;;;;;;12.38;3.63;;;1.20;99.90;;;;;;2096132;28;20456;-73
2022/02/03 02:02:31;;;;;;;13.35;3.03;;;1.20;99.90;;;;;;2105430;28;20031;-74
2022/02/03 02:03:45;;;;;;;12.35;3.10;;;1.20;99.90;;;;;;2105488;28;20036;-74
2022/02/03 02:05:02;;;;;;;11.05;3.28;;;1.20;99.90;;;;;;2104792;28;20043;-73
2022/02/03 02:06:35;;;;;;;14.20;3.60;;;1.20;99.90;;;;;;2098017;28;20776;-73
2022/02/03 02:07:53;;;;;;;11.23;3.22;;;1.30;99.90;;;;;;2104592;28;20024;-74
2022/02/03 02:09:28;;;;;;;15.43;3.20;;;1.30;99.90;;;;;;2098753;28;20087;-74
2022/02/03 02:11:35;;;;;;;12.63;3.00;;;1.40;99.90;;;;;;2101252;28;20024;-74
2022/02/03 02:12:37;;;;;;;11.45;2.97;;;1.40;99.90;;;;;;2094883;28;20499;-74
2022/02/03 02:17:12;;;;;;;12.35;2.97;;;1.40;99.90;;;;;;2106244;28;20024;-73
2022/02/03 02:38:53;;;;;;;10.25;2.75;;;1.10;99.90;;;;;;2106743;28;20040;-73
2022/02/03 02:40:07;;;;;;;9.75;2.67;;;1.10;99.90;;;;;;2106513;28;20508;-73
2022/02/03 02:42:12;;;;;;;12.02;2.92;;;1.10;99.90;;;;;;2106534;28;20036;-73
2022/02/03 02:43:17;;;;;;;11.30;2.97;;;1.10;99.90;;;;;;2106641;28;20020;-73
2022/02/03 02:44:20;;;;;;;9.98;2.63;;;1.10;99.90;;;;;;2101453;28;20044;-73
2022/02/03 02:45:50;;;;;;;12.98;3.22;;;1.10;99.90;;;;;;2105576;28;20098;-72
2022/02/03 02:46:53;;;;;;;11.30;2.90;;;1.10;99.90;;;;;;2101665;28;20032;-73
2022/02/03 02:48:16;;;;;;;11.90;3.15;;;1.10;99.90;;;;;;2097910;28;20047;-73
2022/02/03 02:49:50;;;;;;;14.50;3.30;;;1.10;99.90;;;;;;2106307;28;20039;-72
2022/02/03 02:51:01;;;;;;;13.52;3.45;;;1.10;99.90;;;;;;2106438;28;20059;-72
2022/02/03 02:52:08;;;;;;;10.68;3.78;;;1.10;99.90;;;;;;2106301;28;20031;-73
2022/02/03 02:53:27;;;;;;;12.02;3.40;;;1.10;99.90;;;;;;2106718;28;20112;-73
2022/02/03 02:54:56;;;;;;;11.27;3.70;;;1.10;99.90;;;;;;2097565;28;20035;-73
2022/02/03 02:56:16;;;;;;;11.80;3.28;;;1.10;99.90;;;;;;2101226;28;20097;-72
2022/02/03 02:57:47;;;;;;;14.52;4.22;;;1.10;99.90;;;;;;2100465;28;20096;-73
2022/02/03 03:00:35;;;;;;;12.50;3.65;;;1.10;99.90;;;;;;2106678;28;20039;-74
2022/02/03 03:03:54;;;;;;;16.95;3.83;;;1.20;99.90;;;;;;2106865;28;20073;-73
2022/02/03 03:30:08;;;;;;;23.23;5.18;;;1.20;99.90;;;;;;2106693;28;20047;-73
2022/02/03 03:31:32;;;;;;;19.10;5.10;;;1.20;99.90;;;;;;2106680;28;20495;-72
2022/02/03 03:34:01;;;;;;;20.55;5.90;;;1.30;99.90;;;;;;2106233;28;20031;-73
2022/02/03 03:35:31;;;;;;;19.52;5.57;;;1.30;99.90;;;;;;2097788;28;20032;-73
2022/02/03 03:36:33;;;;;;;21.50;6.18;;;1.30;99.90;;;;;;2101923;28;20031;-71
2022/02/03 03:37:45;;;;;;;20.00;6.05;;;1.30;99.90;;;;;;2108040;28;20027;-73
2022/02/03 03:38:49;;;;;;;24.27;6.38;;;1.40;99.90;;;;;;2105254;28;20045;-72
2022/02/03 03:39:56;;;;;;;24.35;6.70;;;1.40;99.90;;;;;;2103634;28;20092;-73
2022/02/03 03:40:59;;;;;;;24.80;6.85;;;1.40;99.90;;;;;;2096489;28;20021;-72
2022/02/03 03:42:03;;;;;;;20.95;6.20;;;1.40;99.90;;;;;;2096693;28;20048;-73
2022/02/03 03:43:07;;;;;;;21.17;6.88;;;1.50;99.90;;;;;;2112396;28;20119;-73
2022/02/03 03:44:14;;;;;;;25.17;7.28;;;1.50;99.90;;;;;;2113290;28;20016;-73
2022/02/03 03:45:16;;;;;;;20.77;6.65;;;1.50;99.90;;;;;;2113817;28;20024;-73
2022/02/03 03:46:40;;;;;;;25.65;7.32;;;1.60;99.90;;;;;;2112634;28;20020;-73
2022/02/03 03:47:41;;;;;;;22.77;6.70;;;1.60;99.90;;;;;;2096500;28;20036;-74
2022/02/03 03:48:51;;;;;;;22.45;6.70;;;1.60;99.90;;;;;;2110829;28;20106;-73
2022/02/03 03:49:55;;;;;;;22.20;7.28;;;1.70;99.90;;;;;;2106362;28;20040;-73
2022/02/03 03:51:01;;;;;;;21.85;6.60;;;1.70;99.90;;;;;;2106240;28;20090;-73
2022/02/03 03:52:06;;;;;;;23.48;6.55;;;1.70;99.90;;;;;;2105930;28;20086;-72
2022/02/03 03:53:13;;;;;;;18.92;6.20;;;1.70;99.90;;;;;;2098353;28;20101;-72
2022/02/03 03:54:55;;;;;;;19.65;5.75;;;1.70;99.90;;;;;;2098541;28;20025;-72
2022/02/03 03:55:54;;;;;;;18.48;5.45;;;1.80;99.90;;;;;;2098036;28;20117;-73
2022/02/03 03:57:11;;;;;;;17.40;4.97;;;1.80;99.90;;;;;;2105661;28;20043;-73
2022/02/03 04:00:10;;;;;;;17.48;4.90;;;1.80;99.90;;;;;;2100079;28;20721;-73
2022/02/03 04:38:35;;;;;;;14.18;4.72;;;1.70;99.90;;;;;;2105906;28;20027;-74
2022/02/03 04:40:23;;;;;;;;;;;1.80;99.90;;;;;;2105905;28;20081;-73
2022/02/03 04:51:31;;;;;;;13.52;4.07;;;1.80;99.90;;;;;;2105698;28;20060;-73
2022/02/03 04:53:32;;;;;;;13.45;3.90;;;1.80;99.90;;;;;;2102848;28;20065;-72
2022/02/03 04:56:48;;;;;;;11.50;3.92;;;1.80;99.90;;;;;;2101490;28;20020;-73
2022/02/03 05:00:39;;;;;;;12.57;4.10;;;1.80;99.90;;;;;;2105615;28;20031;-73
2022/02/03 05:02:24;;;;;;;12.55;4.32;;;1.80;99.90;;;;;;2105213;28;20031;-72
2022/02/03 05:09:27;;;;;;;13.30;4.40;;;1.70;99.90;;;;;;2105787;28;20036;-72
2022/02/03 05:11:01;;;;;;;16.58;4.50;;;1.70;99.90;;;;;;2105301;28;20023;-72
2022/02/03 05:12:47;;;;;;;12.65;4.57;;;1.70;99.90;;;;;;2101590;28;20036;-72
2022/02/03 05:17:15;;;;;;;14.98;5.25;;;1.60;99.90;;;;;;2105146;28;20028;-73
2022/02/03 05:19:17;;;;;;;12.18;4.85;;;1.60;99.90;;;;;;2103391;28;20042;-72
2022/02/03 05:21:07;;;;;;;13.80;5.30;;;1.60;99.90;;;;;;2095752;28;20047;-73
2022/02/03 05:23:18;;;;;;;15.43;6.10;;;1.60;99.90;;;;;;2105349;28;20024;-72
2022/02/03 05:43:34;;;;;;;18.25;7.60;;;1.40;99.90;;;;;;2104806;28;20028;-73
2022/02/03 05:45:02;;;;;;;19.63;7.75;;;1.40;99.90;;;;;;2104306;28;20039;-73
2022/02/03 05:48:51;;;;;;;19.20;8.93;;;1.40;99.90;;;;;;2106520;28;20020;-73
2022/02/03 05:51:30;;;;;;;17.60;7.78;;;1.50;99.90;;;;;;2106486;28;20031;-73
2022/02/03 06:02:02;;;;;;;14.00;6.32;;;1.60;99.90;;;;;;2107618;28;20376;-73
2022/02/03 06:05:50;;;;;;;17.60;7.85;;;1.70;99.90;;;;;;2108079;28;20099;-73
2022/02/03 06:12:18;;;;;;;17.92;6.55;;;1.80;99.90;;;;;;2100409;28;20075;-73
2022/02/03 06:13:18;;;;;;;17.23;6.20;;;1.80;99.90;;;;;;2106476;28;20115;-73
2022/02/03 06:14:36;;;;;;;18.13;6.90;;;1.80;99.90;;;;;;2106337;28;20316;-73
2022/02/03 06:16:02;;;;;;;19.58;6.35;;;1.80;99.90;;;;;;2106299;28;20023;-74
2022/02/03 06:23:25;;;;;;;16.38;5.85;;;2.00;99.90;;;;;;2106510;28;20051;-72
2022/02/03 06:28:26;;;;;;;13.75;6.07;;;1.90;99.90;;;;;;2082185;28;20041;-72
2022/02/03 06:29:30;;;;;;;18.25;6.03;;;1.90;99.90;;;;;;2082646;28;20535;-73
2022/02/03 06:30:31;;;;;;;15.25;6.07;;;1.90;99.90;;;;;;2073849;28;20084;-72
2022/02/03 06:31:38;;;;;;;14.98;6.60;;;1.90;99.90;;;;;;2074016;28;20042;-72
2022/02/03 06:32:40;;;;;;;18.13;6.97;;;1.90;99.90;;;;;;2082533;28;20036;-71
2022/02/03 06:33:41;;;;;;;16.85;6.60;;;1.90;99.90;;;;;;2107915;28;20043;-73
2022/02/03 06:34:41;;;;;;;17.00;7.28;;;1.90;99.90;;;;;;2108054;28;20123;-73
2022/02/03 06:35:42;;;;;;;17.35;7.63;;;1.90;99.90;;;;;;2107114;28;20541;-73
2022/02/03 06:36:43;;;;;;;19.20;7.53;;;1.90;99.90;;;;;;2108365;28;20048;-73
2022/02/03 06:37:45;;;;;;;18.05;7.50;;;1.90;99.90;;;;;;2108231;28;20056;-73
2022/02/03 06:38:46;;;;;;;19.17;7.65;;;1.90;99.90;;;;;;2108225;28;20043;-73
2022/02/03 06:39:47;;;;;;;20.27;7.30;;;1.90;99.90;;;;;;2107834;28;20027;-72
2022/02/03 06:40:47;;;;;;;17.20;7.53;;;1.90;99.90;;;;;;2107731;28;20013;-72
2022/02/03 06:41:52;;;;;;;18.13;7.63;;;1.90;99.90;;;;;;2108394;28;20020;-71
2022/02/03 06:42:56;;;;;;;19.27;7.63;;;1.90;99.90;;;;;;2107810;28;20059;-72
2022/02/03 06:43:57;;;;;;;19.20;7.53;;;1.90;99.90;;;;;;2107046;28;20024;-73
2022/02/03 06:45:29;;;;;;;18.30;7.72;;;1.90;99.90;;;;;;2098424;28;20425;-73
2022/02/03 06:46:31;;;;;;;17.80;7.80;;;2.00;99.90;;;;;;2107047;28;20035;-73
2022/02/03 06:47:37;;;;;;;19.17;7.70;;;2.00;99.90;;;;;;2108678;28;20284;-74
2022/02/03 06:48:39;;;;;;;22.23;8.77;;;2.00;99.90;;;;;;2106337;28;20039;-73
2022/02/03 06:49:53;;;;;;;20.67;8.52;;;2.00;99.90;;;;;;2107839;28;20749;-75
2022/02/03 06:51:02;;;;;;;21.92;8.10;;;2.00;99.90;;;;;;2108026;28;20020;-72
2022/02/03 06:52:10;;;;;;;20.80;8.35;;;2.00;99.90;;;;;;2106622;28;20036;-72
2022/02/03 06:53:16;;;;;;;19.17;8.60;;;2.00;99.90;;;;;;2106856;28;20072;-72
2022/02/03 06:54:25;;;;;;;18.67;8.32;;;2.00;99.90;;;;;;2107506;28;20023;-73
2022/02/03 06:55:40;;;;;;;22.50;8.70;;;2.10;99.90;;;;;;2097669;28;20498;-74
2022/02/03 06:56:49;;;;;;;20.30;8.50;;;2.00;99.90;;;;;;2101308;28;20578;-75
2022/02/03 06:58:55;;;;;;;25.27;9.02;;;2.10;99.90;;;;;;2107534;28;20016;-73
2022/02/03 07:00:01;;;;;;;25.05;9.13;;;2.10;99.90;;;;;;2106557;28;20085;-72
2022/02/03 07:01:26;;;;;;;22.83;9.23;;;2.10;99.90;;;;;;2107120;28;20028;-72
2022/02/03 07:02:30;;;;;;;23.23;8.57;;;2.10;99.90;;;;;;2107260;28;20643;-73
2022/02/03 07:03:35;;;;;;;24.50;8.88;;;2.10;99.90;;;;;;2106515;28;20395;-71
2022/02/03 07:04:43;;;;;;;21.65;8.40;;;2.20;99.90;;;;;;2106653;28;20043;-72
2022/02/03 07:05:44;;;;;;;21.13;9.13;;;2.20;99.90;;;;;;2106475;28;20177;-72
2022/02/03 07:06:45;;;;;;;20.80;8.90;;;2.20;99.90;;;;;;2106210;28;20024;-71
2022/02/03 07:07:46;;;;;;;23.65;8.95;;;2.20;99.90;;;;;;2107061;28;20035;-72
2022/02/03 07:08:48;;;;;;;24.85;10.00;;;2.20;99.90;;;;;;2107104;28;20024;-72
2022/02/03 07:09:51;;;;;;;26.30;9.40;;;2.30;99.90;;;;;;2107072;28;20020;-72
2022/02/03 07:10:54;;;;;;;26.55;10.13;;;2.30;99.90;;;;;;2106857;28;20226;-72
2022/02/03 07:11:55;;;;;;;27.33;10.13;;;2.30;99.90;;;;;;2107414;28;20043;-71
2022/02/03 07:12:58;;;;;;;22.92;8.75;;;2.30;99.90;;;;;;2107314;28;20024;-71
2022/02/03 07:13:59;;;;;;;24.17;10.00;;;2.30;99.90;;;;;;2107279;28;20027;-72
2022/02/03 07:15:03;;;;;;;27.83;10.18;;;2.40;99.90;;;;;;2106855;28;20475;-72
2022/02/03 07:16:04;;;;;;;27.65;10.05;;;2.40;99.90;;;;;;2105851;28;20147;-72
2022/02/03 07:17:05;;;;;;;23.70;8.85;;;2.40;99.90;;;;;;2098452;28;20067;-72
2022/02/03 07:18:06;;;;;;;24.52;10.98;;;2.40;99.90;;;;;;2107340;28;20036;-72
2022/02/03 07:19:06;;;;;;;26.67;11.68;;;2.40;99.90;;;;;;2106412;28;20020;-71
2022/02/03 07:20:11;;;;;;;28.42;11.57;;;2.40;99.90;;;;;;2106494;28;20119;-72
2022/02/03 07:21:13;;;;;;;26.38;10.75;;;2.50;99.90;;;;;;2107098;28;20028;-72
2022/02/03 07:22:15;;;;;;;24.15;10.30;;;2.50;99.90;;;;;;2106939;28;20039;-72
2022/02/03 07:23:16;;;;;;;23.40;10.27;;;2.50;99.90;;;;;;2106726;28;20027;-72
2022/02/03 07:24:16;;;;;;;20.85;10.25;;;2.60;99.90;;;;;;2108716;28;20035;-75
2022/02/03 07:25:17;;;;;;;29.83;9.38;;;2.60;99.90;;;;;;2108055;28;20032;-77
2022/02/03 07:26:18;;;;;;;19.75;9.38;;;2.60;99.90;;;;;;2106925;28;20030;-73
2022/02/03 07:27:22;;;;;;;20.45;8.82;;;2.60;99.90;;;;;;2108107;28;20028;-73
2022/02/03 07:28:22;;;;;;;22.75;9.10;;;2.60;99.90;;;;;;2100023;28;20045;-73
2022/02/03 07:29:23;;;;;;;22.00;8.98;;;2.60;99.90;;;;;;2107636;28;20120;-72
2022/02/03 07:30:24;;;;;;;25.15;10.07;;;2.70;99.90;;;;;;2097907;28;20062;-71
2022/02/03 07:31:25;;;;;;;26.08;9.43;;;2.70;99.90;;;;;;2106493;28;20047;-71
2022/02/03 07:32:26;;;;;;;18.95;8.77;;;2.70;99.90;;;;;;2107849;28;20023;-73
2022/02/03 07:33:26;;;;;;;22.90;9.13;;;2.70;99.90;;;;;;2106840;28;20118;-73
2022/02/03 07:34:27;;;;;;;18.73;8.15;;;2.80;99.90;;;;;;2107535;28;20184;-72
2022/02/03 07:35:29;;;;;;;15.80;7.68;;;2.80;99.90;;;;;;2105649;28;20027;-72
2022/02/03 07:36:30;;;;;;;16.30;7.85;;;2.80;99.90;;;;;;2099470;28;20031;-74
2022/02/03 07:37:30;;;;;;;24.23;8.98;;;2.90;99.90;;;;;;2108313;28;20042;-72
2022/02/03 07:38:31;;;;;;;19.33;8.43;;;2.90;99.90;;;;;;2108502;28;20491;-73
2022/02/03 07:39:33;;;;;;;16.67;8.68;;;2.90;99.90;;;;;;2106968;28;20114;-73
2022/02/03 07:40:35;;;;;;;16.35;8.25;;;3.00;99.90;;;;;;2107166;28;20027;-73
2022/02/03 07:41:36;;;;;;;27.80;8.30;;;3.00;99.90;;;;;;2106669;28;20717;-72
2022/02/03 07:42:38;;;;;;;23.48;7.55;;;3.00;99.90;;;;;;2106336;28;20027;-72
2022/02/03 07:43:39;;;;;;;24.17;6.93;;;3.00;99.90;;;;;;2098362;28;20063;-73
2022/02/03 07:44:40;;;;;;;18.40;7.00;;;3.00;99.90;;;;;;2106729;28;20641;-72
2022/02/03 07:45:41;;;;;;;18.88;6.45;;;3.00;99.90;;;;;;2107073;28;20874;-72
2022/02/03 07:46:42;;;;;;;19.58;6.53;;;3.10;99.90;;;;;;2107475;28;20024;-72
2022/02/03 07:47:44;;;;;;;16.63;5.93;;;3.10;99.90;;;;;;2107166;28;20035;-73
2022/02/03 07:48:45;;;;;;;16.75;5.55;;;3.10;99.90;;;;;;2106708;28;20020;-73
2022/02/03 07:49:45;;;;;;;15.15;5.90;;;3.20;99.90;;;;;;2105706;28;20099;-72
2022/02/03 07:50:46;;;;;;;15.93;5.53;;;3.20;99.90;;;;;;2097184;28;20127;-71
2022/02/03 07:51:47;;;;;;;15.40;5.13;;;3.20;99.90;;;;;;2105456;28;20115;-71
2022/02/03 07:52:47;;;;;;;15.35;5.72;;;3.30;99.90;;;;;;2097458;28;20055;-72
2022/02/03 07:53:48;;;;;;;18.27;6.18;;;3.30;99.90;;;;;;2089141;28;20037;-72
2022/02/03 07:54:48;;;;;;;19.48;6.97;;;3.30;99.90;;;;;;2097435;28;20021;-72
2022/02/03 07:55:49;;;;;;;17.70;6.85;;;3.30;99.90;;;;;;2105745;28;20487;-72
2022/02/03 07:56:50;;;;;;;16.30;7.10;;;3.30;99.90;;;;;;2105947;28;20573;-73
2022/02/03 07:57:54;;;;;;;19.63;6.53;;;3.40;99.90;;;;;;2105886;28;20519;-73
2022/02/03 07:58:54;;;;;;;20.42;7.40;;;3.40;99.90;;;;;;2107139;28;20114;-75
2022/02/03 07:59:55;;;;;;;20.83;8.40;;;3.40;99.90;;;;;;2106474;28;20020;-75
2022/02/03 08:00:55;;;;;;;17.80;7.10;;;3.40;99.90;;;;;;2097887;28;20037;-73
2022/02/03 08:01:56;;;;;;;18.80;7.60;;;3.40;99.90;;;;;;2105876;28;20016;-73
2022/02/03 08:02:57;;;;;;;18.08;7.65;;;3.50;99.90;;;;;;2098752;28;20028;-74
2022/02/03 08:04:02;;;;;;;17.77;6.88;;;3.50;99.90;;;;;;2106485;28;20491;-73
2022/02/03 08:05:05;;;;;;;18.77;7.03;;;3.50;99.90;;;;;;2105758;28;20040;-73
2022/02/03 08:06:08;;;;;;;14.18;6.68;;;3.60;99.90;;;;;;2105004;28;20039;-71
2022/02/03 08:07:11;;;;;;;28.65;8.63;;;3.60;99.90;;;;;;2106656;28;20073;-72
2022/02/03 08:08:21;;;;;;;21.00;7.65;;;3.60;99.90;;;;;;2106230;28;20038;-72
2022/02/03 08:09:39;;;;;;;18.85;7.30;;;3.60;99.90;;;;;;2105814;28;20047;-73
2022/02/03 08:10:52;;;;;;;17.45;6.60;;;3.60;99.90;;;;;;2107273;28;20020;-72
2022/02/03 08:11:54;;;;;;;17.20;6.60;;;3.70;99.90;;;;;;2106049;28;20299;-72
2022/02/03 08:12:56;;;;;;;16.08;6.20;;;3.70;99.90;;;;;;2106683;28;20121;-72
2022/02/03 08:14:07;;;;;;;19.83;6.10;;;3.70;99.90;;;;;;2107163;28;20028;-73
2022/02/03 08:15:09;;;;;;;;;;;3.70;99.90;;;;;;2107630;28;20028;-72
2022/02/03 08:16:16;;;;;;;21.48;6.72;;;3.70;99.90;;;;;;2098232;28;19912;-74
2022/02/03 08:17:24;;;;;;;17.17;6.38;;;3.70;99.90;;;;;;2098538;28;20044;-73
2022/02/03 08:18:24;;;;;;;15.38;6.15;;;3.70;99.90;;;;;;2098775;28;20030;-73
2022/02/03 08:19:32;;;;;;;17.80;6.13;;;3.70;99.90;;;;;;2106516;28;20024;-74
2022/02/03 08:20:33;;;;;;;14.90;5.90;;;3.80;99.90;;;;;;2107102;28;20020;-73
2022/02/03 08:21:38;;;;;;;25.23;9.27;;;3.80;99.90;;;;;;2106325;28;20028;-73
2022/02/03 08:22:47;;;;;;;19.73;9.70;;;3.80;99.90;;;;;;2090793;28;20029;-74
2022/02/03 08:24:52;;;;;;;25.13;9.70;;;3.90;99.90;;;;;;2109103;28;20207;-74
2022/02/03 08:26:07;;;;;;;23.80;8.90;;;3.90;99.90;;;;;;2107007;28;20019;-74
2022/02/03 08:27:33;;;;;;;18.35;8.35;;;3.90;99.90;;;;;;2107900;28;20036;-73
2022/02/03 08:28:54;;;;;;;19.60;8.82;;;3.90;99.90;;;;;;2107121;28;20036;-75
2022/02/03 08:32:46;;;;;;;23.63;11.55;;;4.10;99.90;;;;;;2106804;28;20097;-73
2022/02/03 08:33:50;;;;;;;20.20;9.98;;;4.10;99.90;;;;;;2105901;28;20024;-73
2022/02/03 08:35:55;;;;;;;19.48;8.43;;;4.10;99.90;;;;;;2098858;28;20028;-73
2022/02/03 08:36:55;;;;;;;18.15;8.02;;;4.10;99.90;;;;;;2106554;28;20038;-74
2022/02/03 08:38:59;;;;;;;21.08;8.50;;;4.20;99.90;;;;;;2107671;28;20090;-73
2022/02/03 08:40:11;;;;;;;23.83;8.73;;;4.10;99.90;;;;;;2108556;28;20024;-75
2022/02/03 08:41:12;;;;;;;26.27;9.00;;;4.20;99.90;;;;;;2101985;28;20048;-75
2022/02/03 08:42:12;;;;;;;19.20;7.72;;;4.20;99.90;;;;;;2102487;28;20032;-75
2022/02/03 08:43:15;;;;;;;22.33;8.02;;;4.20;99.90;;;;;;2108427;28;20073;-74
2022/02/03 08:44:15;;;;;;;20.90;8.98;;;4.30;99.90;;;;;;2109033;28;20101;-75
2022/02/03 08:45:16;;;;;;;22.15;9.05;;;4.30;99.90;;;;;;2108216;28;20483;-75
2022/02/03 08:46:18;;;;;;;20.67;10.43;;;4.30;99.90;;;;;;2108127;28;20028;-73
2022/02/03 08:47:19;;;;;;;21.20;10.07;;;4.40;99.90;;;;;;2107390;28;20028;-74
2022/02/03 08:48:19;;;;;;;24.15;10.90;;;4.40;99.90;;;;;;2106908;28;20472;-74
2022/02/03 08:49:22;;;;;;;23.45;10.40;;;4.40;99.90;;;;;;2107809;28;20031;-73
2022/02/03 08:50:23;;;;;;;19.33;9.77;;;4.50;99.90;;;;;;2099963;28;20032;-74
2022/02/03 08:51:24;;;;;;;20.73;10.25;;;4.50;99.90;;;;;;2098968;28;20031;-74
2022/02/03 08:52:36;;;;;;;19.50;9.52;;;4.60;99.90;;;;;;2108184;28;20047;-74
2022/02/03 08:53:41;;;;;;;26.42;10.70;;;4.60;99.90;;;;;;2109519;28;20016;-74
2022/02/03 08:54:52;;;;;;;22.65;10.65;;;4.70;99.90;;;;;;2107749;28;20603;-74
2022/02/03 08:57:16;;;;;;;23.83;10.90;;;4.70;99.90;;;;;;2098955;28;20281;-74
2022/02/03 08:58:37;;;;;;;25.35;10.45;;;4.80;99.90;;;;;;2105923;28;20089;-73
2022/02/03 09:01:01;;;;;;;20.23;9.80;;;4.90;99.90;;;;;;2106829;28;20387;-73
2022/02/03 09:31:51;;;;;;;25.38;13.90;;;6.00;99.90;;;;;;2106657;28;20024;-75
2022/02/03 09:40:44;;;;;;;24.23;11.50;;;6.20;99.90;;;;;;2089451;28;20045;-72
2022/02/03 09:42:06;;;;;;;26.48;11.10;;;6.20;99.90;;;;;;2105574;28;20020;-72
2022/02/03 09:51:47;;;;;;;23.85;10.85;;;6.10;99.90;;;;;;2076451;28;20145;-73
2022/02/03 09:53:04;;;;;;;23.73;11.05;;;6.10;99.90;;;;;;2106481;28;20024;-73
2022/02/03 09:54:20;;;;;;;20.55;11.23;;;6.10;99.90;;;;;;2107417;28;20407;-74
2022/02/03 09:55:44;;;;;;;26.70;12.38;;;6.20;99.90;;;;;;2104731;28;20031;-74
2022/02/03 09:57:09;;;;;;;24.45;12.75;;;6.20;99.90;;;;;;2105323;28;20028;-74
2022/02/03 09:58:15;;;;;;;23.38;13.05;;;6.20;99.90;;;;;;2106532;28;20035;-74
2022/02/03 09:59:17;;;;;;;29.65;13.57;;;6.30;99.90;;;;;;2107267;28;20042;-75
2022/02/03 10:00:42;;;;;;;28.33;14.40;;;6.30;99.90;;;;;;2106626;28;20583;-73
2022/02/03 10:01:52;;;;;;;25.98;13.32;;;6.30;99.90;;;;;;2105688;28;20028;-75
2022/02/03 10:03:01;;;;;;;28.95;13.15;;;6.30;99.90;;;;;;2106116;28;20035;-74
2022/02/03 10:04:10;;;;;;;26.75;13.05;;;6.40;99.90;;;;;;2105488;28;20040;-74
2022/02/03 10:05:40;;;;;;;23.70;11.25;;;6.30;99.90;;;;;;2106755;28;20131;-75
2022/02/03 10:06:55;;;;;;;24.48;10.68;;;6.40;99.90;;;;;;2097682;28;20024;-73
2022/02/03 10:07:56;;;;;;;18.80;10.07;;;6.40;99.90;;;;;;2100821;28;20067;-73
2022/02/03 10:08:56;;;;;;;26.77;10.95;;;6.40;99.90;;;;;;2107059;28;20027;-75
2022/02/03 10:09:59;;;;;;;22.40;9.30;;;6.50;99.90;;;;;;2105525;28;20483;-75
2022/02/03 10:11:16;;;;;;;23.42;9.55;;;6.50;99.90;;;;;;2098049;28;20525;-72
2022/02/03 10:12:18;;;;;;;19.95;8.30;;;6.60;99.90;;;;;;2097325;28;20033;-74
2022/02/03 10:13:22;;;;;;;17.42;7.50;;;6.60;99.90;;;;;;2099088;28;20036;-74
2022/02/03 10:14:34;;;;;;;25.08;7.20;;;6.70;99.90;;;;;;2090808;28;20032;-74
2022/02/03 10:15:34;;;;;;;18.00;6.63;;;6.70;99.90;;;;;;2097918;28;20028;-73
2022/02/03 10:16:37;;;;;;;16.42;5.90;;;6.70;99.90;;;;;;2105228;28;20028;-74
2022/02/03 10:17:44;;;;;;;13.32;5.55;;;6.70;99.90;;;;;;2106445;28;20924;-73
2022/02/03 10:18:46;;;;;;;14.25;5.38;;;6.80;99.90;;;;;;2106682;28;20127;-71
2022/02/03 10:19:57;;;;;;;16.20;5.72;;;6.80;99.90;;;;;;2106105;28;20095;-73
2022/02/03 10:21:00;;;;;;;19.02;5.25;;;6.80;99.90;;;;;;2106119;28;20056;-74
2022/02/03 10:22:03;;;;;;;13.63;5.05;;;6.90;99.90;;;;;;2098002;28;20040;-71
2022/02/03 10:23:05;;;;;;;12.43;5.28;;;6.80;99.90;;;;;;2106211;28;20040;-74
2022/02/03 10:24:08;;;;;;;14.05;4.90;;;6.90;99.90;;;;;;2106551;28;20055;-74
2022/02/03 10:25:12;;;;;;;14.93;5.10;;;6.80;99.90;;;;;;2107218;28;20091;-74
2022/02/03 10:26:13;;;;;;;15.52;4.88;;;6.80;99.90;;;;;;2097384;28;20523;-77
2022/02/03 10:27:35;;;;;;;14.75;4.82;;;6.80;99.90;;;;;;2089350;28;20045;-75
2022/02/03 10:28:37;;;;;;;14.25;4.90;;;6.80;99.90;;;;;;2092692;28;20020;-74
2022/02/03 10:29:44;;;;;;;13.35;4.90;;;6.80;99.90;;;;;;2089769;28;20071;-74
2022/02/03 10:30:49;;;;;;;18.50;4.90;;;6.80;99.90;;;;;;2098895;28;20067;-74
2022/02/03 10:31:50;;;;;;;15.25;4.80;;;6.70;99.90;;;;;;2098026;28;20039;-74
2022/02/03 10:32:52;;;;;;;11.80;4.78;;;6.70;99.90;;;;;;2108580;28;20036;-75
2022/02/03 10:34:09;;;;;;;14.30;5.00;;;6.70;99.90;;;;;;2108534;28;20031;-74
2022/02/03 10:35:23;;;;;;;18.30;5.50;;;6.80;99.90;;;;;;2108844;28;20028;-76
2022/02/03 10:36:50;;;;;;;13.35;5.65;;;6.80;99.90;;;;;;2109457;28;20479;-75
2022/02/03 10:38:33;;;;;;;11.40;5.90;;;6.80;99.90;;;;;;2108069;28;20044;-73
2022/02/03 10:40:59;;;;;;;15.20;6.28;;;6.90;99.90;;;;;;2109165;28;20491;-75